Latest Coastal Weather Observations for Hervey Bay

IDQ60701

Issued at 10:01 pm EST Friday 27 March 2015 (issued every 10 minutes, with the page automatically refreshed every 10 minutes)

About coastal observations | Map of coastal stations | Coastal observations for QLD | Marine services | Other Formats
Station Details ID: 040405 Name: HERVEY BAY AIRPORT Lat: -25.32 Lon: 152.88 Height: 12.98 m
Data from the previous 72 hours. | See also: Recent months at Hervey Bay
Date/Time
EST
Temp

°C
Wind Pressure Rain
since 9am
mm
Weather Cloud Vis
km
Sea
Height
m
Swell
Dir
 
Speed
knots
Gust
knots
hPa Trend Height
m
Period
s
Dir
27/10:00pm 26.4 ENE 5 8 1018.1 - 0.0 - Partly cloudy 10 - - - -
27/09:30pm 26.6 NE 2 5 1018.5 - 0.0 - Partly cloudy 10 - - - -
27/09:00pm 26.6 NE 5 7 1018.3 - 0.0 - Cloudy 10 - - - -
27/08:30pm 26.6 ENE 7 10 1018.1 - 0.0 - Partly cloudy 10 - - - -
27/08:00pm 26.8 E 7 9 1017.7 - 0.0 - Cloudy 10 - - - -
27/07:30pm 27.4 ENE 4 5 1017.5 - 0.0 - Cloudy 10 - - - -
27/07:00pm 27.4 NE 6 7 1016.8 - 0.0 - Cloudy 10 - - - -
27/06:30pm 27.3 NNE 5 6 1016.4 - 0.0 - Partly cloudy 10 - - - -
27/06:00pm 27.3 N 4 5 1016.1 - 0.0 - Mostly cloudy 10 - - - -
27/05:30pm 27.8 N 4 6 1015.8 - 0.0 - Partly cloudy 10 - - - -
27/05:00pm 27.9 N 5 8 1015.7 - 0.0 - Partly cloudy 10 - - - -
27/04:30pm 28.8 N 6 9 1015.3 - 0.0 - Partly cloudy 10 - - - -
27/04:00pm 29.7 N 7 10 1015.2 - 0.0 - - 10 - - - -
27/03:30pm 30.3 NNE 7 11 1015.1 - 0.0 - Partly cloudy 10 - - - -
27/03:00pm 30.1 N 8 11 1015.1 - 0.0 - - 10 - - - -
27/02:30pm 30.3 NNE 8 11 1015.4 - 0.0 - - 10 - - - -
27/02:00pm 30.4 NNE 8 11 1015.6 - 0.0 - - 10 - - - -
27/01:30pm 30.7 N 8 11 1016.0 - 0.0 - - 10 - - - -
27/01:00pm 30.9 NNW 7 9 1016.5 - 0.0 - - 10 - - - -
27/12:30pm 30.3 N 9 12 1017.0 - 0.0 - - 10 - - - -
27/12:00pm 30.4 N 10 14 1017.6 - 0.0 - - 10 - - - -
27/11:30am 30.1 N 9 13 1018.1 - 0.0 - - 10 - - - -
27/11:00am 29.8 N 9 13 1018.7 - 0.0 - - 10 - - - -
27/10:30am 30.2 NNW 9 13 1019.1 - 0.0 - - 10 - - - -
27/10:00am 29.5 NNW 8 11 1019.2 - 0.0 - Partly cloudy 10 - - - -
27/09:30am 29.0 NNW 9 12 1019.2 - 0.0 - Partly cloudy 10 - - - -
27/09:00am 28.5 NNW 8 11 1019.2 - 0.0 - Partly cloudy 10 - - - -
27/08:30am 27.0 NNW 6 8 1019.3 - 0.0 - Partly cloudy 10 - - - -
27/08:00am 26.1 WNW 1 4 1019.1 - 0.0 - Partly cloudy 10 - - - -
27/07:30am 26.5 NNW 5 8 1018.8 - 0.0 - - 10 - - - -
27/07:00am 26.4 SW 2 4 1018.4 - 0.0 - Partly cloudy 10 - - - -
27/06:30am 24.3 CALM 0 0 1018.1 - 0.0 - Partly cloudy 10 - - - -
27/06:00am 23.5 CALM 0 0 1017.8 - 0.0 - Cloudy 10 - - - -
27/05:30am 23.7 SSW 4 4 1017.7 - 0.0 - Partly cloudy 10 - - - -
27/05:00am 24.0 SW 2 4 1017.5 - 0.0 - Partly cloudy 10 - - - -
27/04:30am 25.2 NE 2 5 1017.2 - 0.0 - Partly cloudy 10 - - - -
27/04:00am 25.1 NE 5 7 1016.8 - 0.0 - Partly cloudy 10 - - - -
27/03:30am 25.5 NNE 5 7 1016.8 - 0.0 - Partly cloudy 10 - - - -
27/03:00am 25.8 NNE 6 8 1016.7 - 0.0 - Mostly clear 10 - - - -
27/02:30am 25.4 NNE 5 8 1017.0 - 0.0 - Partly cloudy 10 - - - -
27/02:00am 25.1 N 4 5 1017.3 - 0.0 - - 10 - - - -
27/01:30am 25.3 N 5 7 1017.4 - 0.0 - - 10 - - - -
27/01:00am 25.3 NNE 6 8 1017.6 - 0.0 - - 10 - - - -
27/12:30am 25.7 NNE 5 6 1018.0 - 0.0 - Partly cloudy 10 - - - -
27/12:00am 25.9 NNE 5 7 1018.0 - 0.0 - - 10 - - - -
 
Date/Time
EST
Temp

°C
Wind Pressure Rain
since 9am
mm
Weather Cloud Vis
km
Sea
Height
m
Swell
Dir
 
Speed
knots
Gust
knots
hPa Trend Height
m
Period
s
Dir
26/11:30pm 25.7 NNE 6 7 1017.9 - 0.0 - - 10 - - - -
26/11:00pm 25.9 NNE 6 8 1018.2 - 0.0 - - 10 - - - -
26/10:30pm 25.9 NNE 6 8 1018.2 - 0.0 - - 10 - - - -
26/10:00pm 25.7 NNE 4 6 1018.5 - 0.0 - Partly cloudy 10 - - - -
26/09:30pm 26.1 NNE 4 6 1018.7 - 0.0 - Partly cloudy 10 - - - -
26/09:00pm 25.9 NNE 5 6 1018.5 - 0.0 - - 10 - - - -
26/08:30pm 26.0 NNE 5 7 1018.0 - 0.0 - - 10 - - - -
26/08:00pm 26.1 N 4 6 1017.7 - 0.0 - - 10 - - - -
26/07:30pm 26.3 NNE 6 7 1017.2 - 0.0 - - 10 - - - -
26/07:00pm 26.3 NNE 6 7 1016.9 - 0.0 - - 10 - - - -
26/06:30pm 26.5 NNE 6 8 1016.6 - 0.0 - - 10 - - - -
26/06:00pm 26.8 NNE 6 8 1016.5 - 0.0 - - 10 - - - -
26/05:30pm 27.4 N 6 9 1016.1 - 0.0 - - 10 - - - -
26/05:00pm 28.2 N 7 9 1015.8 - 0.0 - - 10 - - - -
26/04:30pm 29.3 NNW 7 9 1015.7 - 0.0 - - 10 - - - -
26/04:00pm 29.4 NNW 8 10 1015.7 - 0.0 - - 10 - - - -
26/03:30pm 29.5 N 8 13 1015.6 - 0.0 - - 10 - - - -
26/03:00pm 29.5 N 9 11 1015.7 - 0.0 - - 10 - - - -
26/02:30pm 30.0 N 9 14 1016.0 - 0.0 - - 10 - - - -
26/02:00pm 30.5 NNW 9 12 1016.2 - 0.0 - - 10 - - - -
26/01:30pm 30.2 NNW 9 11 1016.6 - 0.0 - - 10 - - - -
26/01:00pm 30.0 NNW 9 14 1017.0 - 0.0 - - 10 - - - -
26/12:30pm 30.2 NNW 8 13 1017.4 - 0.0 - - 10 - - - -
26/12:00pm 30.0 NNW 8 12 1017.9 - 0.0 - - 10 - - - -
26/11:30am 29.5 N 8 13 1018.3 - 0.0 - Partly cloudy 10 - - - -
26/11:00am 29.9 N 7 12 1018.4 - 0.0 - Partly cloudy 10 - - - -
26/10:30am 29.5 N 9 14 1018.8 - 0.0 - Partly cloudy 10 - - - -
26/10:00am 28.3 NNE 8 11 1019.0 - 0.0 - Partly cloudy 10 - - - -
26/09:30am 28.0 N 8 12 1018.9 - 0.0 - Partly cloudy 10 - - - -
26/09:00am 28.8 NNE 7 14 1018.7 - 0.0 - Mostly clear 10 - - - -
26/08:30am 27.9 NNE 8 11 1018.7 - 0.0 - Partly cloudy 10 - - - -
26/08:00am 28.0 N 8 11 1018.5 - 0.0 - Partly cloudy 10 - - - -
26/07:30am 27.0 N 6 9 1018.2 - 0.0 - Partly cloudy 10 - - - -
26/07:00am 25.9 CALM 0 0 1017.8 - 0.0 - Partly cloudy 10 - - - -
26/06:30am 23.0 NNE 1 3 1017.6 - 0.0 - - 10 - - - -
26/06:00am 22.5 NNE 2 4 1017.1 - 0.0 - Mostly clear 10 - - - -
26/05:30am 22.7 CALM 0 0 1017.1 - 0.0 - Partly cloudy 10 - - - -
26/05:00am 23.8 NNE 1 3 1016.8 - 0.0 - Partly cloudy 10 - - - -
26/04:30am 24.6 N 4 6 1016.2 - 0.0 - Partly cloudy 10 - - - -
26/04:00am 24.8 N 4 6 1016.0 - 0.0 - Partly cloudy 10 - - - -
26/03:30am 24.9 N 5 6 1015.9 - 0.0 - Partly cloudy 10 - - - -
26/03:00am 25.0 N 5 6 1015.8 - 0.0 - Mostly clear 10 - - - -
26/02:30am 25.6 N 6 8 1015.8 - 0.0 - Partly cloudy 10 - - - -
26/02:00am 25.4 N 6 8 1015.8 - 0.0 - Partly cloudy 10 - - - -
26/01:30am 25.6 N 7 9 1015.8 - 0.0 - - 10 - - - -
26/01:00am 25.8 N 7 10 1015.9 - 0.0 - Partly cloudy 10 - - - -
26/12:30am 25.7 N 5 7 1016.2 - 0.0 - Partly cloudy 10 - - - -
26/12:00am 26.0 N 6 8 1016.3 - 0.0 - Mostly clear 10 - - - -
 
Date/Time
EST
Temp

°C
Wind Pressure Rain
since 9am
mm
Weather Cloud Vis
km
Sea
Height
m
Swell
Dir
 
Speed
knots
Gust
knots
hPa Trend Height
m
Period
s
Dir
25/11:30pm 25.8 N 6 8 1016.3 - 0.0 - - 10 - - - -
25/11:00pm 25.8 N 6 10 1016.5 - 0.0 - - 10 - - - -
25/10:30pm 25.9 N 6 9 1016.6 - 0.0 - - 10 - - - -
25/10:00pm 26.0 N 7 10 1016.7 - 0.0 - - 10 - - - -
25/09:30pm 26.1 N 7 10 1016.4 - 0.0 - - 10 - - - -
25/09:00pm 26.2 N 6 10 1016.4 - 0.0 - - 10 - - - -
25/08:30pm 26.3 N 7 11 1016.3 - 0.0 - - 10 - - - -
25/08:00pm 26.4 N 8 11 1015.9 - 0.0 - - 10 - - - -
25/07:30pm 26.4 N 7 11 1015.5 - 0.0 - - 10 - - - -
25/07:00pm 26.4 N 7 10 1015.2 - 0.0 - - 10 - - - -
25/06:30pm 26.4 N 7 11 1015.1 - 0.0 - - 10 - - - -
25/06:00pm 26.6 N 8 12 1014.7 - 0.0 - - 10 - - - -
25/05:30pm 27.2 N 9 12 1014.6 - 0.0 - - 10 - - - -
25/05:00pm 27.9 NNE 10 13 1014.2 - 0.0 - - 10 - - - -
25/04:30pm 28.5 N 10 14 1014.1 - 0.0 - - 10 - - - -
25/04:00pm 28.7 N 11 15 1014.0 - 0.0 - - 10 - - - -
25/03:30pm 28.7 NNE 12 16 1013.9 - 0.0 - - 10 - - - -
25/03:00pm 29.7 N 11 15 1014.0 - 0.0 - - 10 - - - -
25/02:30pm 29.0 N 11 14 1014.1 - 0.0 - - 10 - - - -
25/02:00pm 29.8 N 10 14 1014.3 - 0.0 - - 10 - - - -
25/01:30pm 29.9 N 11 15 1014.4 - 0.0 - - 10 - - - -
25/01:00pm 29.9 N 10 17 1014.6 - 0.0 - - 10 - - - -
25/12:30pm 29.6 N 12 17 1015.0 - 0.0 - - 10 - - - -
25/12:00pm 29.3 N 10 15 1015.5 - 0.0 - Mostly clear 10 - - - -
25/11:30am 29.3 N 10 15 1016.0 - 0.0 - - 10 - - - -
25/11:00am 28.6 N 12 17 1016.2 - 0.0 - Partly cloudy 10 - - - -
25/10:30am 29.1 N 10 15 1016.4 - 0.0 - Partly cloudy 10 - - - -
25/10:00am 28.9 N 10 15 1016.6 - 0.0 - Partly cloudy 10 - - - -
25/09:30am 29.4 N 9 13 1016.8 - 0.0 - Partly cloudy 10 - - - -
25/09:00am 28.4 NNW 9 13 1016.8 - 0.0 - Mostly clear 10 - - - -
25/08:30am 28.4 N 9 13 1016.7 - 0.0 - Partly cloudy 10 - - - -
25/08:00am 28.0 N 9 12 1016.5 - 0.0 - Partly cloudy 10 - - - -
25/07:30am 27.5 NNW 9 11 1016.2 - 0.0 - Partly cloudy 10 - - - -
25/07:00am 26.5 NNW 6 9 1015.8 - 0.0 - Partly cloudy 10 - - - -
25/06:30am 25.3 NNW 2 5 1015.1 - 0.0 - Cloudy 10 - - - -
25/06:00am 25.1 WNW 1 3 1015.2 - 0.0 - Cloudy 10 - - - -
25/05:30am 25.4 NNW 3 5 1015.0 - 0.0 - Cloudy 10 - - - -
25/05:00am 25.6 N 5 8 1014.5 - 0.0 - Cloudy 10 - - - -
25/04:30am 25.1 N 6 9 1014.2 - 0.0 - Partly cloudy 10 - - - -
25/04:00am 25.1 N 6 8 1013.8 - 0.0 - - 10 - - - -
25/03:30am 24.9 N 5 8 1013.6 - 0.0 - Partly cloudy 10 - - - -
25/03:00am 25.2 N 7 10 1013.5 - 0.0 - Partly cloudy 10 - - - -
25/02:30am 25.1 N 7 10 1013.7 - 0.0 - Partly cloudy 10 - - - -
25/02:00am 25.0 N 7 11 1013.7 - 0.0 - - 10 - - - -
25/01:30am 24.9 N 6 8 1014.2 - 0.0 - - 10 - - - -
25/01:00am 25.2 N 6 8 1014.4 - 0.0 - Partly cloudy 10 - - - -
25/12:30am 25.7 N 7 10 1014.6 - 0.0 - Partly cloudy 10 - - - -
25/12:00am 25.5 N 7 10 1014.8 - 0.0 - Partly cloudy 10 - - - -
 
Date/Time
EST
Temp

°C
Wind Pressure Rain
since 9am
mm
Weather Cloud Vis
km
Sea
Height
m
Swell
Dir
 
Speed
knots
Gust
knots
hPa Trend Height
m
Period
s
Dir
24/11:30pm 25.7 NNE 8 11 1014.9 - 0.0 - Partly cloudy 10 - - - -
24/11:00pm 25.4 NNE 7 10 1015.4 - 0.0 - Partly cloudy 10 - - - -
24/10:30pm 25.2 N 5 7 1015.8 - 0.0 - Partly cloudy 10 - - - -

Other Formats:

Comma delimited format used in spreadsheet applications
http://www.bom.gov.au/fwo/IDQ60701/IDQ60701.95565.axf

JavaScript Object Notation format (JSON) in row-major order
http://www.bom.gov.au/fwo/IDQ60701/IDQ60701.95565.json